sensor_id;sensor_type;location;lat;lon;timestamp;temperature;humidity
23010;DHT22;11671;49.990;8.028;2023-08-24T00:02:06;21.50;99.90
23010;DHT22;11671;49.990;8.028;2023-08-24T00:04:32;21.50;99.90
23010;DHT22;11671;49.990;8.028;2023-08-24T00:06:59;21.40;99.90
23010;DHT22;11671;49.990;8.028;2023-08-24T00:09:24;21.40;99.90
23010;DHT22;11671;49.990;8.028;2023-08-24T00:11:51;21.30;99.90
23010;DHT22;11671;49.990;8.028;2023-08-24T00:14:17;21.30;99.90
23010;DHT22;11671;49.990;8.028;2023-08-24T00:16:43;21.20;99.90
23010;DHT22;11671;49.990;8.028;2023-08-24T00:19:08;21.20;99.90
23010;DHT22;11671;49.990;8.028;2023-08-24T00:21:34;21.10;99.90
23010;DHT22;11671;49.990;8.028;2023-08-24T00:24:00;21.10;99.90
23010;DHT22;11671;49.990;8.028;2023-08-24T00:26:25;20.80;99.90
23010;DHT22;11671;49.990;8.028;2023-08-24T00:28:51;20.80;99.90
23010;DHT22;11671;49.990;8.028;2023-08-24T00:31:17;20.80;99.90
23010;DHT22;11671;49.990;8.028;2023-08-24T00:33:42;20.80;99.90
23010;DHT22;11671;49.990;8.028;2023-08-24T00:36:08;20.80;99.90
23010;DHT22;11671;49.990;8.028;2023-08-24T00:38:34;20.80;99.90
23010;DHT22;11671;49.990;8.028;2023-08-24T00:40:59;20.80;99.90
23010;DHT22;11671;49.990;8.028;2023-08-24T00:43:26;20.90;99.90
23010;DHT22;11671;49.990;8.028;2023-08-24T00:45:51;21.00;99.90
23010;DHT22;11671;49.990;8.028;2023-08-24T00:48:19;21.00;99.90
23010;DHT22;11671;49.990;8.028;2023-08-24T00:50:45;21.10;99.90
23010;DHT22;11671;49.990;8.028;2023-08-24T00:53:10;21.10;99.90
23010;DHT22;11671;49.990;8.028;2023-08-24T00:55:36;21.20;99.90
23010;DHT22;11671;49.990;8.028;2023-08-24T00:58:02;21.20;99.90
23010;DHT22;11671;49.990;8.028;2023-08-24T01:00:28;21.20;99.90
23010;DHT22;11671;49.990;8.028;2023-08-24T01:02:54;21.30;99.90
23010;DHT22;11671;49.990;8.028;2023-08-24T01:05:20;21.20;99.90
23010;DHT22;11671;49.990;8.028;2023-08-24T01:07:45;21.20;99.90
23010;DHT22;11671;49.990;8.028;2023-08-24T01:10:11;21.20;99.90
23010;DHT22;11671;49.990;8.028;2023-08-24T01:12:55;21.20;99.90
23010;DHT22;11671;49.990;8.028;2023-08-24T01:18:22;21.30;99.90
23010;DHT22;11671;49.990;8.028;2023-08-24T01:20:49;21.20;99.90
23010;DHT22;11671;49.990;8.028;2023-08-24T01:23:43;21.10;99.90
23010;DHT22;11671;49.990;8.028;2023-08-24T01:28:37;21.10;99.90
23010;DHT22;11671;49.990;8.028;2023-08-24T01:31:04;21.10;99.90
23010;DHT22;11671;49.990;8.028;2023-08-24T01:33:30;21.10;99.90
23010;DHT22;11671;49.990;8.028;2023-08-24T01:35:56;21.00;99.90
23010;DHT22;11671;49.990;8.028;2023-08-24T01:38:22;21.00;99.90
23010;DHT22;11671;49.990;8.028;2023-08-24T01:43:21;21.00;99.90
23010;DHT22;11671;49.990;8.028;2023-08-24T01:45:51;21.00;99.90
23010;DHT22;11671;49.990;8.028;2023-08-24T01:48:17;20.90;99.90
23010;DHT22;11671;49.990;8.028;2023-08-24T01:50:43;20.80;99.90
23010;DHT22;11671;49.990;8.028;2023-08-24T01:53:09;20.70;99.90
23010;DHT22;11671;49.990;8.028;2023-08-24T01:55:35;20.70;99.90
23010;DHT22;11671;49.990;8.028;2023-08-24T01:58:00;20.60;99.90
23010;DHT22;11671;49.990;8.028;2023-08-24T02:00:26;20.60;99.90
23010;DHT22;11671;49.990;8.028;2023-08-24T02:02:52;20.60;99.90
23010;DHT22;11671;49.990;8.028;2023-08-24T02:05:17;20.50;99.90
23010;DHT22;11671;49.990;8.028;2023-08-24T02:07:43;20.40;99.90
23010;DHT22;11671;49.990;8.028;2023-08-24T02:10:09;20.30;99.90
23010;DHT22;11671;49.990;8.028;2023-08-24T02:12:34;20.30;99.90
23010;DHT22;11671;49.990;8.028;2023-08-24T02:15:00;20.30;99.90
23010;DHT22;11671;49.990;8.028;2023-08-24T02:17:28;20.30;99.90
23010;DHT22;11671;49.990;8.028;2023-08-24T02:19:55;20.30;99.90
23010;DHT22;11671;49.990;8.028;2023-08-24T02:22:21;20.30;99.90
23010;DHT22;11671;49.990;8.028;2023-08-24T02:24:46;20.40;99.90
23010;DHT22;11671;49.990;8.028;2023-08-24T02:27:12;20.50;99.90
23010;DHT22;11671;49.990;8.028;2023-08-24T02:29:38;20.50;99.90
23010;DHT22;11671;49.990;8.028;2023-08-24T02:32:04;20.60;99.90
23010;DHT22;11671;49.990;8.028;2023-08-24T02:34:30;20.70;99.90
23010;DHT22;11671;49.990;8.028;2023-08-24T02:36:56;20.70;99.90
23010;DHT22;11671;49.990;8.028;2023-08-24T02:39:22;20.80;99.90
23010;DHT22;11671;49.990;8.028;2023-08-24T02:41:48;20.80;99.90
23010;DHT22;11671;49.990;8.028;2023-08-24T02:44:13;20.70;99.90
23010;DHT22;11671;49.990;8.028;2023-08-24T02:46:39;20.70;99.90
23010;DHT22;11671;49.990;8.028;2023-08-24T02:49:04;20.60;99.90
23010;DHT22;11671;49.990;8.028;2023-08-24T02:51:30;20.60;99.90
23010;DHT22;11671;49.990;8.028;2023-08-24T02:53:57;20.50;99.90
23010;DHT22;11671;49.990;8.028;2023-08-24T02:56:23;20.50;99.90
23010;DHT22;11671;49.990;8.028;2023-08-24T02:58:48;20.50;99.90
23010;DHT22;11671;49.990;8.028;2023-08-24T03:01:14;20.40;99.90
23010;DHT22;11671;49.990;8.028;2023-08-24T03:03:39;20.40;99.90
23010;DHT22;11671;49.990;8.028;2023-08-24T03:06:07;20.50;99.90
23010;DHT22;11671;49.990;8.028;2023-08-24T03:08:34;20.30;99.90
23010;DHT22;11671;49.990;8.028;2023-08-24T03:11:00;20.30;99.90
23010;DHT22;11671;49.990;8.028;2023-08-24T03:13:27;20.20;99.90
23010;DHT22;11671;49.990;8.028;2023-08-24T03:15:53;20.10;99.90
23010;DHT22;11671;49.990;8.028;2023-08-24T03:18:19;20.10;99.90
23010;DHT22;11671;49.990;8.028;2023-08-24T03:20:45;20.10;99.90
23010;DHT22;11671;49.990;8.028;2023-08-24T03:23:11;20.10;99.90
23010;DHT22;11671;49.990;8.028;2023-08-24T03:25:38;20.10;99.90
23010;DHT22;11671;49.990;8.028;2023-08-24T03:28:07;20.10;99.90
23010;DHT22;11671;49.990;8.028;2023-08-24T03:30:36;20.10;99.90
23010;DHT22;11671;49.990;8.028;2023-08-24T03:33:02;20.20;99.90
23010;DHT22;11671;49.990;8.028;2023-08-24T03:35:30;20.30;99.90
23010;DHT22;11671;49.990;8.028;2023-08-24T03:37:56;20.40;99.90
23010;DHT22;11671;49.990;8.028;2023-08-24T03:40:21;20.50;99.90
23010;DHT22;11671;49.990;8.028;2023-08-24T03:42:47;20.60;99.90
23010;DHT22;11671;49.990;8.028;2023-08-24T03:45:12;20.50;99.90
23010;DHT22;11671;49.990;8.028;2023-08-24T03:47:38;20.50;99.90
23010;DHT22;11671;49.990;8.028;2023-08-24T03:50:03;20.50;99.90
23010;DHT22;11671;49.990;8.028;2023-08-24T03:52:29;20.50;99.90
23010;DHT22;11671;49.990;8.028;2023-08-24T03:54:55;20.50;99.90
23010;DHT22;11671;49.990;8.028;2023-08-24T03:57:20;20.60;99.90
23010;DHT22;11671;49.990;8.028;2023-08-24T03:59:46;20.50;99.90
23010;DHT22;11671;49.990;8.028;2023-08-24T04:02:11;20.50;99.90
23010;DHT22;11671;49.990;8.028;2023-08-24T04:04:37;20.50;99.90
23010;DHT22;11671;49.990;8.028;2023-08-24T04:07:02;20.60;99.90
23010;DHT22;11671;49.990;8.028;2023-08-24T04:09:28;20.60;99.90
23010;DHT22;11671;49.990;8.028;2023-08-24T04:11:54;20.70;99.90
23010;DHT22;11671;49.990;8.028;2023-08-24T04:14:19;20.80;99.90
23010;DHT22;11671;49.990;8.028;2023-08-24T04:16:45;20.70;99.90
23010;DHT22;11671;49.990;8.028;2023-08-24T04:19:11;20.80;99.90
23010;DHT22;11671;49.990;8.028;2023-08-24T04:21:36;20.80;99.90
23010;DHT22;11671;49.990;8.028;2023-08-24T04:24:02;20.90;99.90
23010;DHT22;11671;49.990;8.028;2023-08-24T04:26:27;20.90;99.90
23010;DHT22;11671;49.990;8.028;2023-08-24T04:28:53;20.90;99.90
23010;DHT22;11671;49.990;8.028;2023-08-24T04:31:19;20.90;99.90
23010;DHT22;11671;49.990;8.028;2023-08-24T04:33:44;20.90;99.90
23010;DHT22;11671;49.990;8.028;2023-08-24T04:36:10;20.90;99.90
23010;DHT22;11671;49.990;8.028;2023-08-24T04:38:35;20.90;99.90
23010;DHT22;11671;49.990;8.028;2023-08-24T04:41:01;20.90;99.90
23010;DHT22;11671;49.990;8.028;2023-08-24T04:43:28;21.00;99.90
23010;DHT22;11671;49.990;8.028;2023-08-24T04:45:54;20.90;99.90
23010;DHT22;11671;49.990;8.028;2023-08-24T04:48:24;20.80;99.90
23010;DHT22;11671;49.990;8.028;2023-08-24T04:50:51;20.60;99.90
23010;DHT22;11671;49.990;8.028;2023-08-24T04:53:19;20.60;99.90
23010;DHT22;11671;49.990;8.028;2023-08-24T04:55:45;20.60;99.90
23010;DHT22;11671;49.990;8.028;2023-08-24T04:58:12;20.60;99.90
23010;DHT22;11671;49.990;8.028;2023-08-24T05:00:39;20.60;99.90
23010;DHT22;11671;49.990;8.028;2023-08-24T05:03:05;20.70;99.90
23010;DHT22;11671;49.990;8.028;2023-08-24T05:05:32;20.70;99.90
23010;DHT22;11671;49.990;8.028;2023-08-24T05:08:00;20.90;99.90
23010;DHT22;11671;49.990;8.028;2023-08-24T05:10:30;21.00;99.90
23010;DHT22;11671;49.990;8.028;2023-08-24T05:12:56;21.20;99.90
23010;DHT22;11671;49.990;8.028;2023-08-24T05:15:22;21.30;99.90
23010;DHT22;11671;49.990;8.028;2023-08-24T05:17:47;21.30;99.90
23010;DHT22;11671;49.990;8.028;2023-08-24T05:20:13;21.30;99.90
23010;DHT22;11671;49.990;8.028;2023-08-24T05:22:39;21.10;99.90
23010;DHT22;11671;49.990;8.028;2023-08-24T05:25:05;21.00;99.90
23010;DHT22;11671;49.990;8.028;2023-08-24T05:27:31;21.00;99.90
23010;DHT22;11671;49.990;8.028;2023-08-24T05:29:56;21.00;99.90
23010;DHT22;11671;49.990;8.028;2023-08-24T05:32:24;21.00;99.90
23010;DHT22;11671;49.990;8.028;2023-08-24T05:34:50;21.00;99.90
23010;DHT22;11671;49.990;8.028;2023-08-24T05:37:16;21.10;99.90
23010;DHT22;11671;49.990;8.028;2023-08-24T05:39:41;21.00;99.90
23010;DHT22;11671;49.990;8.028;2023-08-24T05:42:08;21.00;99.90
23010;DHT22;11671;49.990;8.028;2023-08-24T05:44:34;21.00;99.90
23010;DHT22;11671;49.990;8.028;2023-08-24T05:46:59;21.10;99.90
23010;DHT22;11671;49.990;8.028;2023-08-24T05:49:25;21.20;99.90
23010;DHT22;11671;49.990;8.028;2023-08-24T05:51:50;21.30;99.90
23010;DHT22;11671;49.990;8.028;2023-08-24T05:54:16;21.30;99.90
23010;DHT22;11671;49.990;8.028;2023-08-24T05:56:47;21.30;99.90
23010;DHT22;11671;49.990;8.028;2023-08-24T05:59:14;21.30;99.90
23010;DHT22;11671;49.990;8.028;2023-08-24T06:01:40;21.40;99.90
23010;DHT22;11671;49.990;8.028;2023-08-24T06:04:07;21.50;99.90
23010;DHT22;11671;49.990;8.028;2023-08-24T06:06:33;21.60;99.90
23010;DHT22;11671;49.990;8.028;2023-08-24T06:08:59;21.60;99.90
23010;DHT22;11671;49.990;8.028;2023-08-24T06:11:24;21.60;99.90
23010;DHT22;11671;49.990;8.028;2023-08-24T06:13:50;21.40;99.90
23010;DHT22;11671;49.990;8.028;2023-08-24T06:16:19;21.10;99.90
23010;DHT22;11671;49.990;8.028;2023-08-24T06:18:44;20.90;99.90
23010;DHT22;11671;49.990;8.028;2023-08-24T06:23:36;20.80;99.90
23010;DHT22;11671;49.990;8.028;2023-08-24T06:26:01;20.90;99.90
23010;DHT22;11671;49.990;8.028;2023-08-24T06:28:27;21.10;99.90
23010;DHT22;11671;49.990;8.028;2023-08-24T06:30:54;21.20;99.90
23010;DHT22;11671;49.990;8.028;2023-08-24T06:33:20;21.50;99.90
23010;DHT22;11671;49.990;8.028;2023-08-24T06:35:46;21.90;99.90
23010;DHT22;11671;49.990;8.028;2023-08-24T06:38:13;22.60;99.90
23010;DHT22;11671;49.990;8.028;2023-08-24T06:40:39;23.40;99.90
23010;DHT22;11671;49.990;8.028;2023-08-24T06:43:04;23.90;99.90
23010;DHT22;11671;49.990;8.028;2023-08-24T06:45:31;24.20;99.90
23010;DHT22;11671;49.990;8.028;2023-08-24T06:47:57;24.00;99.90
23010;DHT22;11671;49.990;8.028;2023-08-24T06:50:22;23.70;99.90
23010;DHT22;11671;49.990;8.028;2023-08-24T06:52:48;23.50;99.90
23010;DHT22;11671;49.990;8.028;2023-08-24T06:55:14;23.50;99.90
23010;DHT22;11671;49.990;8.028;2023-08-24T06:57:40;23.60;99.90
23010;DHT22;11671;49.990;8.028;2023-08-24T07:00:06;23.90;99.90
23010;DHT22;11671;49.990;8.028;2023-08-24T07:02:35;24.00;99.90
23010;DHT22;11671;49.990;8.028;2023-08-24T07:05:02;24.10;99.90
23010;DHT22;11671;49.990;8.028;2023-08-24T07:07:30;24.20;99.90
23010;DHT22;11671;49.990;8.028;2023-08-24T07:09:56;24.20;99.90
23010;DHT22;11671;49.990;8.028;2023-08-24T07:12:22;24.20;99.90
23010;DHT22;11671;49.990;8.028;2023-08-24T07:14:47;24.20;99.90
23010;DHT22;11671;49.990;8.028;2023-08-24T07:17:13;24.10;99.90
23010;DHT22;11671;49.990;8.028;2023-08-24T07:19:38;24.10;99.90
23010;DHT22;11671;49.990;8.028;2023-08-24T07:22:04;24.10;99.90
23010;DHT22;11671;49.990;8.028;2023-08-24T07:24:29;24.00;99.90
23010;DHT22;11671;49.990;8.028;2023-08-24T07:26:55;23.70;99.90
23010;DHT22;11671;49.990;8.028;2023-08-24T07:29:21;23.40;99.90
23010;DHT22;11671;49.990;8.028;2023-08-24T07:31:47;23.30;99.90
23010;DHT22;11671;49.990;8.028;2023-08-24T07:34:14;23.20;99.90
23010;DHT22;11671;49.990;8.028;2023-08-24T07:36:40;22.70;99.90
23010;DHT22;11671;49.990;8.028;2023-08-24T07:39:05;22.30;99.90
23010;DHT22;11671;49.990;8.028;2023-08-24T07:41:31;21.90;99.90
23010;DHT22;11671;49.990;8.028;2023-08-24T07:43:56;21.70;99.90
23010;DHT22;11671;49.990;8.028;2023-08-24T07:46:22;22.00;99.90
23010;DHT22;11671;49.990;8.028;2023-08-24T07:48:47;22.40;99.90
23010;DHT22;11671;49.990;8.028;2023-08-24T07:51:13;22.20;99.90
23010;DHT22;11671;49.990;8.028;2023-08-24T07:53:38;21.90;99.90
23010;DHT22;11671;49.990;8.028;2023-08-24T07:56:04;21.60;99.90
23010;DHT22;11671;49.990;8.028;2023-08-24T07:58:30;21.80;99.90
23010;DHT22;11671;49.990;8.028;2023-08-24T08:00:57;21.90;99.90
23010;DHT22;11671;49.990;8.028;2023-08-24T08:03:23;22.10;99.90
23010;DHT22;11671;49.990;8.028;2023-08-24T08:05:49;22.20;99.90
23010;DHT22;11671;49.990;8.028;2023-08-24T08:08:14;22.40;99.90
23010;DHT22;11671;49.990;8.028;2023-08-24T08:10:40;23.00;99.90
23010;DHT22;11671;49.990;8.028;2023-08-24T08:13:07;23.40;99.90
23010;DHT22;11671;49.990;8.028;2023-08-24T08:15:33;23.60;99.90
23010;DHT22;11671;49.990;8.028;2023-08-24T08:17:59;23.60;99.90
23010;DHT22;11671;49.990;8.028;2023-08-24T08:20:25;24.00;99.90
23010;DHT22;11671;49.990;8.028;2023-08-24T08:22:50;24.50;99.90
23010;DHT22;11671;49.990;8.028;2023-08-24T08:25:16;24.70;99.90
23010;DHT22;11671;49.990;8.028;2023-08-24T08:27:47;25.10;99.90
23010;DHT22;11671;49.990;8.028;2023-08-24T08:30:13;25.40;99.90
23010;DHT22;11671;49.990;8.028;2023-08-24T08:32:40;25.70;99.90
23010;DHT22;11671;49.990;8.028;2023-08-24T08:35:06;26.10;99.90
23010;DHT22;11671;49.990;8.028;2023-08-24T08:37:32;26.50;99.90
23010;DHT22;11671;49.990;8.028;2023-08-24T08:39:58;26.80;99.90
23010;DHT22;11671;49.990;8.028;2023-08-24T08:42:23;27.10;99.90
23010;DHT22;11671;49.990;8.028;2023-08-24T08:44:51;26.90;99.90
23010;DHT22;11671;49.990;8.028;2023-08-24T08:47:20;27.00;99.90
23010;DHT22;11671;49.990;8.028;2023-08-24T08:49:48;27.10;99.90
23010;DHT22;11671;49.990;8.028;2023-08-24T08:52:14;27.30;99.90
23010;DHT22;11671;49.990;8.028;2023-08-24T08:54:40;27.40;99.90
23010;DHT22;11671;49.990;8.028;2023-08-24T08:57:06;27.40;99.90
23010;DHT22;11671;49.990;8.028;2023-08-24T08:59:33;27.40;99.90
23010;DHT22;11671;49.990;8.028;2023-08-24T09:04:32;27.90;99.90
23010;DHT22;11671;49.990;8.028;2023-08-24T09:06:59;27.90;99.90
23010;DHT22;11671;49.990;8.028;2023-08-24T09:09:31;27.80;99.90
23010;DHT22;11671;49.990;8.028;2023-08-24T09:11:59;27.80;99.90
23010;DHT22;11671;49.990;8.028;2023-08-24T09:14:24;27.70;99.90
23010;DHT22;11671;49.990;8.028;2023-08-24T09:16:50;27.30;99.90
23010;DHT22;11671;49.990;8.028;2023-08-24T09:19:16;27.40;99.90
23010;DHT22;11671;49.990;8.028;2023-08-24T09:21:41;27.30;99.90
23010;DHT22;11671;49.990;8.028;2023-08-24T09:24:08;27.20;99.90
23010;DHT22;11671;49.990;8.028;2023-08-24T09:26:37;27.40;99.90
23010;DHT22;11671;49.990;8.028;2023-08-24T09:29:15;27.70;99.90
23010;DHT22;11671;49.990;8.028;2023-08-24T09:31:42;27.60;99.90
23010;DHT22;11671;49.990;8.028;2023-08-24T09:34:11;27.60;99.90
23010;DHT22;11671;49.990;8.028;2023-08-24T09:36:37;27.10;99.90
23010;DHT22;11671;49.990;8.028;2023-08-24T09:39:04;27.00;99.90
23010;DHT22;11671;49.990;8.028;2023-08-24T09:41:50;26.80;99.90
23010;DHT22;11671;49.990;8.028;2023-08-24T09:44:19;27.10;99.90
23010;DHT22;11671;49.990;8.028;2023-08-24T09:46:44;27.30;99.90
23010;DHT22;11671;49.990;8.028;2023-08-24T09:49:11;27.60;99.90
23010;DHT22;11671;49.990;8.028;2023-08-24T09:51:39;27.60;99.90
23010;DHT22;11671;49.990;8.028;2023-08-24T09:54:09;27.70;99.90
23010;DHT22;11671;49.990;8.028;2023-08-24T09:56:39;27.30;99.90
23010;DHT22;11671;49.990;8.028;2023-08-24T10:01:38;27.90;99.90
23010;DHT22;11671;49.990;8.028;2023-08-24T10:04:05;28.20;99.90
23010;DHT22;11671;49.990;8.028;2023-08-24T10:06:31;28.20;99.90
23010;DHT22;11671;49.990;8.028;2023-08-24T10:09:02;28.30;99.90
23010;DHT22;11671;49.990;8.028;2023-08-24T10:11:39;28.50;99.90
23010;DHT22;11671;49.990;8.028;2023-08-24T10:14:18;28.70;99.90
23010;DHT22;11671;49.990;8.028;2023-08-24T10:16:46;28.00;99.90
23010;DHT22;11671;49.990;8.028;2023-08-24T10:19:13;28.10;99.90
23010;DHT22;11671;49.990;8.028;2023-08-24T10:21:39;28.40;99.90
23010;DHT22;11671;49.990;8.028;2023-08-24T10:24:06;28.50;99.90
23010;DHT22;11671;49.990;8.028;2023-08-24T10:26:33;28.20;99.90
23010;DHT22;11671;49.990;8.028;2023-08-24T10:29:00;28.00;99.90
23010;DHT22;11671;49.990;8.028;2023-08-24T10:31:26;28.00;99.90
23010;DHT22;11671;49.990;8.028;2023-08-24T10:33:54;27.80;99.90
23010;DHT22;11671;49.990;8.028;2023-08-24T10:36:21;27.90;99.90
23010;DHT22;11671;49.990;8.028;2023-08-24T10:38:48;28.10;99.90
23010;DHT22;11671;49.990;8.028;2023-08-24T10:41:13;28.30;99.90
23010;DHT22;11671;49.990;8.028;2023-08-24T10:43:49;28.40;99.90
23010;DHT22;11671;49.990;8.028;2023-08-24T10:46:15;28.30;99.90
23010;DHT22;11671;49.990;8.028;2023-08-24T10:54:07;28.30;99.90
23010;DHT22;11671;49.990;8.028;2023-08-24T10:56:36;28.20;99.90
23010;DHT22;11671;49.990;8.028;2023-08-24T10:59:11;28.40;99.90
23010;DHT22;11671;49.990;8.028;2023-08-24T11:01:56;28.50;99.90
23010;DHT22;11671;49.990;8.028;2023-08-24T11:04:22;28.50;99.90
23010;DHT22;11671;49.990;8.028;2023-08-24T11:06:55;28.60;99.90
23010;DHT22;11671;49.990;8.028;2023-08-24T11:09:22;28.40;99.90
23010;DHT22;11671;49.990;8.028;2023-08-24T11:12:02;28.40;99.90
23010;DHT22;11671;49.990;8.028;2023-08-24T11:14:29;28.50;99.90
23010;DHT22;11671;49.990;8.028;2023-08-24T11:17:18;28.50;99.90
23010;DHT22;11671;49.990;8.028;2023-08-24T11:19:52;28.60;99.90
23010;DHT22;11671;49.990;8.028;2023-08-24T11:22:19;28.60;99.90
23010;DHT22;11671;49.990;8.028;2023-08-24T11:24:45;28.40;99.90
23010;DHT22;11671;49.990;8.028;2023-08-24T11:27:10;28.30;99.90
23010;DHT22;11671;49.990;8.028;2023-08-24T11:29:36;28.30;99.90
23010;DHT22;11671;49.990;8.028;2023-08-24T11:32:02;28.20;99.90
23010;DHT22;11671;49.990;8.028;2023-08-24T11:34:29;28.40;99.90
23010;DHT22;11671;49.990;8.028;2023-08-24T11:36:55;28.40;99.90
23010;DHT22;11671;49.990;8.028;2023-08-24T11:39:22;28.60;99.90
23010;DHT22;11671;49.990;8.028;2023-08-24T11:42:05;28.60;99.90
23010;DHT22;11671;49.990;8.028;2023-08-24T11:44:49;28.40;99.90
23010;DHT22;11671;49.990;8.028;2023-08-24T11:47:15;28.40;99.90
23010;DHT22;11671;49.990;8.028;2023-08-24T11:49:41;28.40;99.90
23010;DHT22;11671;49.990;8.028;2023-08-24T11:52:08;28.70;99.90
23010;DHT22;11671;49.990;8.028;2023-08-24T11:54:35;29.00;99.90
23010;DHT22;11671;49.990;8.028;2023-08-24T11:57:06;29.10;99.90
23010;DHT22;11671;49.990;8.028;2023-08-24T11:59:32;29.40;99.90
23010;DHT22;11671;49.990;8.028;2023-08-24T12:01:58;29.40;99.90
23010;DHT22;11671;49.990;8.028;2023-08-24T12:04:24;29.30;99.90
23010;DHT22;11671;49.990;8.028;2023-08-24T12:06:49;29.20;99.90
23010;DHT22;11671;49.990;8.028;2023-08-24T12:09:15;29.20;99.90
23010;DHT22;11671;49.990;8.028;2023-08-24T12:11:41;28.90;99.90
23010;DHT22;11671;49.990;8.028;2023-08-24T12:14:07;28.60;99.90
23010;DHT22;11671;49.990;8.028;2023-08-24T12:16:35;28.50;99.90
23010;DHT22;11671;49.990;8.028;2023-08-24T12:19:01;28.30;99.90
23010;DHT22;11671;49.990;8.028;2023-08-24T12:21:30;28.20;99.90
23010;DHT22;11671;49.990;8.028;2023-08-24T12:24:02;28.30;99.90
23010;DHT22;11671;49.990;8.028;2023-08-24T12:26:31;28.50;99.90
23010;DHT22;11671;49.990;8.028;2023-08-24T12:29:01;28.50;99.90
23010;DHT22;11671;49.990;8.028;2023-08-24T12:31:29;28.60;99.90
23010;DHT22;11671;49.990;8.028;2023-08-24T12:34:02;28.60;99.90
23010;DHT22;11671;49.990;8.028;2023-08-24T12:36:33;28.60;99.90
23010;DHT22;11671;49.990;8.028;2023-08-24T12:38:58;28.50;99.90
23010;DHT22;11671;49.990;8.028;2023-08-24T12:41:24;28.50;99.90
23010;DHT22;11671;49.990;8.028;2023-08-24T12:43:51;28.50;99.90
23010;DHT22;11671;49.990;8.028;2023-08-24T12:46:17;28.40;99.90
23010;DHT22;11671;49.990;8.028;2023-08-24T12:48:43;28.50;99.90
23010;DHT22;11671;49.990;8.028;2023-08-24T12:51:08;28.40;99.90
23010;DHT22;11671;49.990;8.028;2023-08-24T12:53:34;28.60;99.90
23010;DHT22;11671;49.990;8.028;2023-08-24T12:55:59;28.50;99.90
23010;DHT22;11671;49.990;8.028;2023-08-24T12:58:25;28.40;99.90
23010;DHT22;11671;49.990;8.028;2023-08-24T13:00:50;28.40;99.90
23010;DHT22;11671;49.990;8.028;2023-08-24T13:03:16;28.50;99.90
23010;DHT22;11671;49.990;8.028;2023-08-24T13:05:42;28.40;99.90
23010;DHT22;11671;49.990;8.028;2023-08-24T13:08:08;28.40;99.90
23010;DHT22;11671;49.990;8.028;2023-08-24T13:10:33;28.40;99.90
23010;DHT22;11671;49.990;8.028;2023-08-24T13:12:59;28.50;99.90
23010;DHT22;11671;49.990;8.028;2023-08-24T13:15:25;28.50;99.90
23010;DHT22;11671;49.990;8.028;2023-08-24T13:17:51;28.50;99.90
23010;DHT22;11671;49.990;8.028;2023-08-24T13:20:17;28.50;99.90
23010;DHT22;11671;49.990;8.028;2023-08-24T13:22:42;28.70;99.90
23010;DHT22;11671;49.990;8.028;2023-08-24T13:25:08;28.80;99.90
23010;DHT22;11671;49.990;8.028;2023-08-24T13:27:34;28.90;99.90
23010;DHT22;11671;49.990;8.028;2023-08-24T13:30:00;29.00;99.90
23010;DHT22;11671;49.990;8.028;2023-08-24T13:32:27;29.00;99.90
23010;DHT22;11671;49.990;8.028;2023-08-24T13:34:54;28.80;99.90
23010;DHT22;11671;49.990;8.028;2023-08-24T13:37:21;28.70;99.90
23010;DHT22;11671;49.990;8.028;2023-08-24T13:39:48;28.70;99.90
23010;DHT22;11671;49.990;8.028;2023-08-24T13:42:16;28.60;99.90
23010;DHT22;11671;49.990;8.028;2023-08-24T13:44:43;28.60;99.90
23010;DHT22;11671;49.990;8.028;2023-08-24T13:47:08;28.70;99.90
23010;DHT22;11671;49.990;8.028;2023-08-24T13:49:34;28.70;99.90
23010;DHT22;11671;49.990;8.028;2023-08-24T13:52:00;28.60;99.90
23010;DHT22;11671;49.990;8.028;2023-08-24T13:54:26;28.70;99.90
23010;DHT22;11671;49.990;8.028;2023-08-24T13:56:52;28.50;99.90
23010;DHT22;11671;49.990;8.028;2023-08-24T13:59:20;28.60;99.90
23010;DHT22;11671;49.990;8.028;2023-08-24T14:01:46;28.70;99.90
23010;DHT22;11671;49.990;8.028;2023-08-24T14:04:12;28.40;99.90
23010;DHT22;11671;49.990;8.028;2023-08-24T14:06:37;28.10;99.90
23010;DHT22;11671;49.990;8.028;2023-08-24T14:09:03;27.90;99.90
23010;DHT22;11671;49.990;8.028;2023-08-24T14:11:30;27.90;99.90
23010;DHT22;11671;49.990;8.028;2023-08-24T14:13:56;28.00;99.90
23010;DHT22;11671;49.990;8.028;2023-08-24T14:16:22;28.20;99.90
23010;DHT22;11671;49.990;8.028;2023-08-24T14:18:48;28.30;99.90
23010;DHT22;11671;49.990;8.028;2023-08-24T14:21:15;28.50;99.90
23010;DHT22;11671;49.990;8.028;2023-08-24T14:23:41;28.50;99.90
23010;DHT22;11671;49.990;8.028;2023-08-24T14:26:07;28.60;99.90
23010;DHT22;11671;49.990;8.028;2023-08-24T14:28:51;28.60;99.90
23010;DHT22;11671;49.990;8.028;2023-08-24T14:31:20;28.60;99.90
23010;DHT22;11671;49.990;8.028;2023-08-24T14:33:46;28.60;99.90
23010;DHT22;11671;49.990;8.028;2023-08-24T14:36:11;28.50;99.90
23010;DHT22;11671;49.990;8.028;2023-08-24T14:38:40;28.30;99.90
23010;DHT22;11671;49.990;8.028;2023-08-24T14:41:10;28.10;99.90
23010;DHT22;11671;49.990;8.028;2023-08-24T14:43:37;28.00;99.90
23010;DHT22;11671;49.990;8.028;2023-08-24T14:46:03;28.00;99.90
23010;DHT22;11671;49.990;8.028;2023-08-24T14:48:29;27.90;99.90
23010;DHT22;11671;49.990;8.028;2023-08-24T14:50:55;27.70;99.90
23010;DHT22;11671;49.990;8.028;2023-08-24T14:53:22;27.70;99.90
23010;DHT22;11671;49.990;8.028;2023-08-24T14:55:48;27.50;99.90
23010;DHT22;11671;49.990;8.028;2023-08-24T14:58:14;27.40;99.90
23010;DHT22;11671;49.990;8.028;2023-08-24T15:00:39;27.10;99.90
23010;DHT22;11671;49.990;8.028;2023-08-24T15:03:05;26.90;99.90
23010;DHT22;11671;49.990;8.028;2023-08-24T15:05:31;26.70;99.90
23010;DHT22;11671;49.990;8.028;2023-08-24T15:08:02;26.50;99.90
23010;DHT22;11671;49.990;8.028;2023-08-24T15:10:28;26.40;99.90
23010;DHT22;11671;49.990;8.028;2023-08-24T15:12:53;26.40;99.90
23010;DHT22;11671;49.990;8.028;2023-08-24T15:15:19;26.50;99.90
23010;DHT22;11671;49.990;8.028;2023-08-24T15:17:44;26.60;99.90
23010;DHT22;11671;49.990;8.028;2023-08-24T15:20:10;26.80;99.90
23010;DHT22;11671;49.990;8.028;2023-08-24T15:22:38;27.00;99.90
23010;DHT22;11671;49.990;8.028;2023-08-24T15:25:05;27.20;99.90
23010;DHT22;11671;49.990;8.028;2023-08-24T15:27:30;27.40;99.90
23010;DHT22;11671;49.990;8.028;2023-08-24T15:29:56;27.50;99.90
23010;DHT22;11671;49.990;8.028;2023-08-24T15:32:23;27.60;99.90
23010;DHT22;11671;49.990;8.028;2023-08-24T15:34:49;27.70;99.90
23010;DHT22;11671;49.990;8.028;2023-08-24T15:37:15;27.70;99.90
23010;DHT22;11671;49.990;8.028;2023-08-24T15:39:41;27.80;99.90
23010;DHT22;11671;49.990;8.028;2023-08-24T15:42:07;27.90;99.90
23010;DHT22;11671;49.990;8.028;2023-08-24T15:44:33;27.70;99.90
23010;DHT22;11671;49.990;8.028;2023-08-24T15:47:00;27.40;99.90
23010;DHT22;11671;49.990;8.028;2023-08-24T15:49:26;27.10;99.90